Time,TemperatureF,DewpointF,PressureIn,WindDirection,WindDirectionDegrees,WindSpeedMPH,WindSpeedGustMPH,Humidity,HourlyPrecipIn,Conditions,Clouds,dailyrainin,SoftwareType,DateUTC
2013-09-03 00:04:00,66.9,56.0,29.83,East,80,2.0,7.0,67,0.00,,,0.00,weatherlink.com 1.10,2013-09-03 07:04:00,
2013-09-03 00:19:00,66.8,56.0,29.83,ENE,63,3.0,3.0,68,0.00,,,0.00,weatherlink.com 1.10,2013-09-03 07:19:00,
2013-09-03 00:34:00,66.8,56.0,29.83,ENE,72,3.0,5.0,68,0.00,,,0.00,weatherlink.com 1.10,2013-09-03 07:34:00,
2013-09-03 00:49:00,66.7,56.0,29.84,ESE,119,1.0,6.0,68,0.00,,,0.00,weatherlink.com 1.10,2013-09-03 07:49:00,
2013-09-03 01:04:00,67.2,56.0,29.84,SSE,159,0.0,5.0,68,0.00,,,0.00,weatherlink.com 1.10,2013-09-03 08:04:00,
2013-09-03 01:19:00,66.9,56.0,29.85,East,84,1.0,4.0,68,0.00,,,0.00,weatherlink.com 1.10,2013-09-03 08:19:00,
2013-09-03 01:34:00,66.8,56.0,29.85,ENE,74,0.0,2.0,68,0.00,,,0.00,weatherlink.com 1.10,2013-09-03 08:34:00,
2013-09-03 01:49:00,66.5,56.0,29.84,NE,46,4.0,5.0,69,0.00,,,0.00,weatherlink.com 1.10,2013-09-03 08:49:00,
2013-09-03 02:05:00,66.7,55.0,29.84,NE,54,3.0,5.0,67,0.00,,,0.00,weatherlink.com 1.10,2013-09-03 09:05:00,
2013-09-03 02:20:00,67.2,56.0,29.85,WSW,248,2.0,4.0,68,0.00,,,0.00,weatherlink.com 1.10,2013-09-03 09:20:00,
2013-09-03 02:35:00,66.3,57.0,29.85,ENE,58,3.0,5.0,71,0.00,,,0.00,weatherlink.com 1.10,2013-09-03 09:35:00,
2013-09-03 02:50:00,66.6,57.0,29.84,ENE,58,1.0,5.0,70,0.00,,,0.00,weatherlink.com 1.10,2013-09-03 09:50:00,
2013-09-03 03:05:00,66.8,56.0,29.85,ENE,63,1.0,5.0,69,0.00,,,0.00,weatherlink.com 1.10,2013-09-03 10:05:00,
2013-09-03 03:20:00,66.6,56.0,29.84,East,84,3.0,4.0,69,0.00,,,0.00,weatherlink.com 1.10,2013-09-03 10:20:00,
2013-09-03 03:35:00,66.8,56.0,29.85,ESE,105,1.0,4.0,69,0.00,,,0.00,weatherlink.com 1.10,2013-09-03 10:35:00,
2013-09-03 03:50:00,65.8,56.0,29.85,NE,40,1.0,5.0,71,0.00,,,0.00,weatherlink.com 1.10,2013-09-03 10:50:00,
2013-09-03 04:05:00,66.5,56.0,29.84,NE,49,2.0,5.0,68,0.00,,,0.00,weatherlink.com 1.10,2013-09-03 11:05:00,
2013-09-03 04:20:00,67.3,55.0,29.84,ENE,77,4.0,7.0,65,0.00,,,0.00,weatherlink.com 1.10,2013-09-03 11:20:00,
2013-09-03 04:35:00,67.0,55.0,29.84,East,79,2.0,4.0,65,0.00,,,0.00,weatherlink.com 1.10,2013-09-03 11:35:00,
2013-09-03 04:50:00,66.6,55.0,29.84,East,87,0.0,4.0,67,0.00,,,0.00,weatherlink.com 1.10,2013-09-03 11:50:00,
2013-09-03 05:05:00,64.9,56.0,29.84,SW,225,0.0,3.0,73,0.00,,,0.00,weatherlink.com 1.10,2013-09-03 12:05:00,
2013-09-03 05:20:00,63.9,56.0,29.85,East,87,1.0,4.0,76,0.00,,,0.00,weatherlink.com 1.10,2013-09-03 12:20:00,
2013-09-03 05:35:00,63.9,56.0,29.85,NE,45,1.0,6.0,76,0.00,,,0.00,weatherlink.com 1.10,2013-09-03 12:35:00,
2013-09-03 05:50:00,64.5,56.0,29.84,East,89,4.0,7.0,74,0.00,,,0.00,weatherlink.com 1.10,2013-09-03 12:50:00,
2013-09-03 06:05:00,65.0,56.0,29.85,ESE,107,3.0,8.0,73,0.00,,,0.00,weatherlink.com 1.10,2013-09-03 13:05:00,
2013-09-03 06:20:00,64.5,56.0,29.85,East,80,6.0,7.0,74,0.00,,,0.00,weatherlink.com 1.10,2013-09-03 13:20:00,
2013-09-03 06:35:00,64.6,56.0,29.85,ENE,57,2.0,8.0,74,0.00,,,0.00,weatherlink.com 1.10,2013-09-03 13:35:00,
2013-09-03 06:50:00,65.1,56.0,29.85,ENE,75,2.0,7.0,73,0.00,,,0.00,weatherlink.com 1.10,2013-09-03 13:50:00,
2013-09-03 07:05:00,65.2,56.0,29.85,ENE,74,4.0,7.0,72,0.00,,,0.00,weatherlink.com 1.10,2013-09-03 14:05:00,
2013-09-03 07:20:00,65.4,56.0,29.86,ENE,69,3.0,7.0,72,0.00,,,0.00,weatherlink.com 1.10,2013-09-03 14:20:00,
2013-09-03 07:35:00,65.1,56.0,29.87,ENE,74,2.0,4.0,73,0.00,,,0.00,weatherlink.com 1.10,2013-09-03 14:35:00,
2013-09-03 07:50:00,65.7,56.0,29.87,ENE,77,4.0,7.0,72,0.00,,,0.00,weatherlink.com 1.10,2013-09-03 14:50:00,
2013-09-03 08:05:00,65.8,57.0,29.88,East,86,5.0,5.0,72,0.00,,,0.00,weatherlink.com 1.10,2013-09-03 15:05:00,
2013-09-03 08:20:00,66.4,56.0,29.87,NE,56,2.0,7.0,70,0.00,,,0.00,weatherlink.com 1.10,2013-09-03 15:20:00,
2013-09-03 08:35:00,67.2,56.0,29.88,NE,53,2.0,6.0,68,0.00,,,0.00,weatherlink.com 1.10,2013-09-03 15:35:00,
2013-09-03 08:50:00,67.7,56.0,29.89,ESE,108,4.0,6.0,67,0.00,,,0.00,weatherlink.com 1.10,2013-09-03 15:50:00,
2013-09-03 09:05:00,68.1,57.0,29.89,ESE,120,0.0,7.0,67,0.00,,,0.00,weatherlink.com 1.10,2013-09-03 16:05:00,
2013-09-03 09:20:00,69.2,57.0,29.89,ENE,63,3.0,7.0,65,0.00,,,0.00,weatherlink.com 1.10,2013-09-03 16:20:00,
2013-09-03 09:35:00,70.6,57.0,29.89,NE,39,4.0,6.0,62,0.00,,,0.00,weatherlink.com 1.10,2013-09-03 16:35:00,
2013-09-03 09:50:00,70.7,56.0,29.90,ENE,60,3.0,6.0,61,0.00,,,0.00,weatherlink.com 1.10,2013-09-03 16:50:00,
2013-09-03 10:05:00,70.5,57.0,29.90,NE,53,3.0,7.0,62,0.00,,,0.00,weatherlink.com 1.10,2013-09-03 17:05:00,
2013-09-03 10:20:00,70.7,56.0,29.90,NE,44,3.0,8.0,61,0.00,,,0.00,weatherlink.com 1.10,2013-09-03 17:20:00,
2013-09-03 10:35:00,71.0,57.0,29.90,East,95,4.0,6.0,61,0.00,,,0.00,weatherlink.com 1.10,2013-09-03 17:35:00,
2013-09-03 10:50:00,71.9,57.0,29.90,ESE,102,6.0,6.0,60,0.00,,,0.00,weatherlink.com 1.10,2013-09-03 17:50:00,
2013-09-03 11:06:00,72.4,57.0,29.90,ENE,68,1.0,6.0,58,0.00,,,0.00,weatherlink.com 1.10,2013-09-03 18:06:00,
2013-09-03 11:21:00,72.8,57.0,29.90,ENE,59,4.0,6.0,58,0.00,,,0.00,weatherlink.com 1.10,2013-09-03 18:21:00,
2013-09-03 11:36:00,72.8,57.0,29.91,ENE,73,0.0,5.0,58,0.00,,,0.00,weatherlink.com 1.10,2013-09-03 18:36:00,
2013-09-03 11:51:00,72.8,57.0,29.91,NE,54,1.0,4.0,58,0.00,,,0.00,weatherlink.com 1.10,2013-09-03 18:51:00,
2013-09-03 12:06:00,73.3,57.0,29.92,ENE,74,2.0,4.0,57,0.00,,,0.00,weatherlink.com 1.10,2013-09-03 19:06:00,
2013-09-03 12:21:00,73.7,57.0,29.92,ENE,68,0.0,4.0,56,0.00,,,0.00,weatherlink.com 1.10,2013-09-03 19:21:00,
2013-09-03 12:36:00,73.7,58.0,29.93,SSE,155,0.0,3.0,58,0.00,,,0.00,weatherlink.com 1.10,2013-09-03 19:36:00,
2013-09-03 12:51:00,73.5,58.0,29.94,South,181,5.0,5.0,58,0.00,,,0.00,weatherlink.com 1.10,2013-09-03 19:51:00,
2013-09-03 13:06:00,70.0,59.0,29.96,SW,228,6.0,10.0,68,0.00,,,0.00,weatherlink.com 1.10,2013-09-03 20:06:00,
2013-09-03 13:21:00,68.9,59.0,29.96,SW,222,5.0,8.0,70,0.00,,,0.00,weatherlink.com 1.10,2013-09-03 20:21:00,
2013-09-03 13:36:00,67.3,60.0,29.96,SW,236,2.0,6.0,76,0.02,,,0.02,weatherlink.com 1.10,2013-09-03 20:36:00,
2013-09-03 13:51:00,66.6,60.0,29.95,West,274,0.0,4.0,80,0.05,,,0.05,weatherlink.com 1.10,2013-09-03 20:51:00,
2013-09-03 14:06:00,66.7,62.0,29.95,NNE,23,0.0,1.0,84,0.06,,,0.06,weatherlink.com 1.10,2013-09-03 21:06:00,
2013-09-03 14:21:00,66.8,62.0,29.92,East,79,1.0,4.0,85,0.06,,,0.06,weatherlink.com 1.10,2013-09-03 21:21:00,
2013-09-03 14:36:00,69.2,62.0,29.92,East,86,1.0,6.0,79,0.04,,,0.06,weatherlink.com 1.10,2013-09-03 21:36:00,
2013-09-03 14:51:00,70.9,63.0,29.92,NNE,30,4.0,6.0,76,0.01,,,0.06,weatherlink.com 1.10,2013-09-03 21:51:00,
2013-09-03 15:06:00,71.8,63.0,29.92,ENE,60,3.0,6.0,73,0.00,,,0.06,weatherlink.com 1.10,2013-09-03 22:06:00,
2013-09-03 15:21:00,73.5,64.0,29.91,ESE,110,4.0,7.0,71,0.00,,,0.06,weatherlink.com 1.10,2013-09-03 22:21:00,
2013-09-03 15:36:00,74.6,63.0,29.90,ENE,63,8.0,8.0,68,0.00,,,0.06,weatherlink.com 1.10,2013-09-03 22:36:00,
2013-09-03 15:51:00,74.2,62.0,29.90,ESE,108,1.0,8.0,66,0.00,,,0.06,weatherlink.com 1.10,2013-09-03 22:51:00,
2013-09-03 16:06:00,74.5,61.0,29.89,ENE,77,6.0,10.0,62,0.00,,,0.06,weatherlink.com 1.10,2013-09-03 23:06:00,
2013-09-03 16:21:00,74.6,61.0,29.89,ENE,68,8.0,9.0,62,0.00,,,0.06,weatherlink.com 1.10,2013-09-03 23:21:00,
2013-09-03 16:36:00,75.0,61.0,29.89,East,84,6.0,12.0,62,0.00,,,0.06,weatherlink.com 1.10,2013-09-03 23:36:00,
2013-09-03 16:51:00,75.3,60.0,29.89,NE,49,11.0,11.0,60,0.00,,,0.06,weatherlink.com 1.10,2013-09-03 23:51:00,
2013-09-03 17:06:00,75.4,61.0,29.89,NNE,30,7.0,12.0,61,0.00,,,0.06,weatherlink.com 1.10,2013-09-04 00:06:00,
2013-09-03 17:21:00,75.4,60.0,29.89,NE,52,8.0,12.0,60,0.00,,,0.06,weatherlink.com 1.10,2013-09-04 00:21:00,
2013-09-03 17:36:00,75.9,60.0,29.89,ENE,68,3.0,10.0,58,0.00,,,0.06,weatherlink.com 1.10,2013-09-04 00:36:00,
2013-09-03 17:51:00,74.3,59.0,29.89,East,98,7.0,7.0,60,0.00,,,0.06,weatherlink.com 1.10,2013-09-04 00:51:00,
2013-09-03 18:06:00,72.6,60.0,29.89,East,100,1.0,4.0,64,0.00,,,0.06,weatherlink.com 1.10,2013-09-04 01:06:00,
2013-09-03 18:21:00,71.9,59.0,29.88,ENE,76,1.0,4.0,65,0.00,,,0.06,weatherlink.com 1.10,2013-09-04 01:21:00,
2013-09-03 18:36:00,71.0,59.0,29.88,NE,41,4.0,5.0,66,0.00,,,0.06,weatherlink.com 1.10,2013-09-04 01:36:00,
2013-09-03 18:51:00,70.5,59.0,29.88,NE,37,2.0,4.0,66,0.00,,,0.06,weatherlink.com 1.10,2013-09-04 01:51:00,
2013-09-03 19:06:00,69.8,59.0,29.89,ESE,103,0.0,1.0,68,0.00,,,0.06,weatherlink.com 1.10,2013-09-04 02:06:00,
2013-09-03 19:21:00,68.8,59.0,29.89,ENE,77,0.0,2.0,70,0.00,,,0.06,weatherlink.com 1.10,2013-09-04 02:21:00,
2013-09-03 19:36:00,68.9,59.0,29.89,East,83,0.0,3.0,70,0.00,,,0.06,weatherlink.com 1.10,2013-09-04 02:36:00,
2013-09-03 19:51:00,68.7,59.0,29.88,East,92,2.0,3.0,70,0.00,,,0.06,weatherlink.com 1.10,2013-09-04 02:51:00,
2013-09-03 20:06:00,69.0,59.0,29.88,ENE,74,3.0,4.0,70,0.00,,,0.06,weatherlink.com 1.10,2013-09-04 03:06:00,
2013-09-03 20:21:00,69.2,59.0,29.88,East,90,2.0,4.0,70,0.00,,,0.06,weatherlink.com 1.10,2013-09-04 03:21:00,
2013-09-03 20:36:00,68.9,59.0,29.89,ENE,71,0.0,4.0,70,0.00,,,0.06,weatherlink.com 1.10,2013-09-04 03:36:00,
2013-09-03 20:51:00,67.8,58.0,29.88,NE,49,2.0,4.0,72,0.00,,,0.06,weatherlink.com 1.10,2013-09-04 03:51:00,
2013-09-03 21:06:00,68.0,59.0,29.88,ENE,70,1.0,2.0,72,0.00,,,0.06,weatherlink.com 1.10,2013-09-04 04:06:00,
2013-09-03 21:21:00,67.8,58.0,29.89,NE,47,3.0,5.0,72,0.00,,,0.06,weatherlink.com 1.10,2013-09-04 04:21:00,
2013-09-03 21:36:00,67.5,59.0,29.88,NE,51,0.0,5.0,73,0.00,,,0.06,weatherlink.com 1.10,2013-09-04 04:36:00,
2013-09-03 21:51:00,67.5,58.0,29.89,NNE,30,2.0,4.0,72,0.00,,,0.06,weatherlink.com 1.10,2013-09-04 04:51:00,
2013-09-03 22:06:00,67.5,59.0,29.89,NE,34,3.0,5.0,73,0.00,,,0.06,weatherlink.com 1.10,2013-09-04 05:06:00,
2013-09-03 22:21:00,65.9,59.0,29.89,NE,39,3.0,6.0,78,0.00,,,0.06,weatherlink.com 1.10,2013-09-04 05:21:00,
2013-09-03 22:36:00,66.8,59.0,29.89,ENE,63,1.0,4.0,76,0.00,,,0.06,weatherlink.com 1.10,2013-09-04 05:36:00,
2013-09-03 22:51:00,67.0,59.0,29.88,ESE,113,4.0,5.0,75,0.00,,,0.06,weatherlink.com 1.10,2013-09-04 05:51:00,
2013-09-03 23:06:00,66.8,59.0,29.89,ENE,60,2.0,4.0,76,0.00,,,0.06,weatherlink.com 1.10,2013-09-04 06:06:00,
2013-09-03 23:21:00,66.7,59.0,29.89,East,94,2.0,5.0,76,0.00,,,0.06,weatherlink.com 1.10,2013-09-04 06:21:00,
2013-09-03 23:36:00,66.6,59.0,29.89,NE,44,1.0,5.0,76,0.00,,,0.06,weatherlink.com 1.10,2013-09-04 06:36:00,
2013-09-03 23:52:00,66.3,59.0,29.89,ENE,69,4.0,5.0,78,0.00,,,0.06,weatherlink.com 1.10,2013-09-04 06:52:00,